Latest Weather Observations for Thredbo Top Station

IDN60801

Issued at 11:02 am EST Thursday 25 May 2017 (issued every 30 minutes, with the page automatically refreshed every 10 minutes)

About weather observations | Map of weather stations | Latest weather observations for NSW | Other Formats
Station Details ID: 071032 Name: THREDBO AWS Lat: -36.49 Lon: 148.29 Height: 1957.0 m
Data from the previous 72 hours. | See also: Recent months at Thredbo Top Station
Date/Time
EST
Temp
°C
App
Temp
°C
Dew
Point
°C
Rel
Hum
%
Delta-T
°C
Wind Press
QNH
hPa
Press
MSL
hPa
Rain since
9am
mm
Dir  Spd
km/h
Gust
km/h
Spd
kts
Gust
kts
25/11:00am 6.0 -1.4 -0.7 62 2.9 WNW 28 39 15 21 1022.2 1022.0 0.0
25/10:30am 5.8 -1.7 -1.6 59 3.1 WNW 28 37 15 20 1022.2 1022.0 0.0
25/10:00am 5.4 -2.0 -3.6 52 3.6 WNW 26 33 14 18 1022.2 1022.0 0.0
25/09:30am 5.6 -1.5 -4.5 48 4.0 W 24 32 13 17 1022.0 1021.9 0.0
25/09:00am 4.6 -3.2 -8.1 39 4.5 WNW 26 35 14 19 1022.0 1021.9 0.2
25/08:30am 4.9 -2.2 -8.5 37 4.7 W 22 32 12 17 1021.9 1021.8 0.2
25/08:00am 4.3 -3.0 -10.5 33 5.1 W 22 33 12 18 1021.7 1021.5 0.2
25/07:30am 4.5 -3.0 -13.8 25 5.9 W 22 30 12 16 1021.3 1021.1 0.2
25/07:00am 3.8 -3.9 -10.6 34 4.9 W 24 32 13 17 1021.2 1021.0 0.2
25/06:30am 3.1 -4.0 -4.3 58 2.8 W 24 33 13 18 1020.7 1020.5 0.2
25/06:00am 2.9 -3.8 -4.3 59 2.7 W 22 30 12 16 1020.5 1020.2 0.2
25/05:30am 3.8 -2.7 -6.2 48 3.7 W 20 26 11 14 1020.2 1020.0 0.2
25/05:00am 4.2 -3.3 -8.2 40 4.6 WSW 24 35 13 19 1020.1 1019.9 0.2
25/04:30am 4.4 -3.3 -6.8 44 4.1 WSW 26 35 14 19 1020.1 1019.9 0.2
25/04:00am 4.3 -2.7 -3.7 56 3.1 WSW 24 30 13 16 1020.0 1019.7 0.2
25/03:30am 4.2 -2.8 -3.3 58 3.0 WSW 24 32 13 17 1019.9 1019.6 0.2
25/03:00am 3.9 -2.7 -3.6 58 2.9 WSW 22 32 12 17 1019.9 1019.6 0.2
25/02:30am 3.2 -3.1 -3.6 61 2.6 WSW 20 33 11 18 1020.0 1019.7 0.2
25/02:00am 3.5 -3.1 -3.3 61 2.7 WSW 22 37 12 20 1019.7 1019.5 0.2
25/01:30am 3.1 -4.0 -4.1 59 2.8 WSW 24 35 13 19 1019.6 1019.4 0.2
25/01:00am 1.7 -4.7 -4.6 63 2.4 W 20 33 11 18 1019.6 1019.4 0.2
25/12:30am 1.5 -5.9 -3.9 67 2.1 W 26 44 14 24 1019.4 1019.1 0.2
25/12:00am 2.0 -5.9 -4.7 61 2.6 W 28 43 15 23 1019.4 1019.1 0.2
 
Date/Time
EST
Temp
°C
App
Temp
°C
Dew
Point
°C
Rel
Hum
%
Delta-T
°C
Wind Press
QNH
hPa
Press
MSL
hPa
Rain since
9am
mm
Dir  Spd
km/h
Gust
km/h
Spd
kts
Gust
kts
24/11:30pm 0.6 -8.1 -3.3 75 1.5 W 33 52 18 28 1019.3 1019.0 0.2
24/11:26pm 1.1 -7.6 -4.7 65 2.2 W 32 52 17 28 1019.1 1018.8 0.2
24/11:00pm 0.0 -8.4 -2.2 85 0.9 W 32 44 17 24 1019.1 1018.8 0.2
24/10:30pm 0.0 -7.9 -1.7 88 0.7 W 30 44 16 24 1019.3 1019.0 0.2
24/10:00pm 0.4 -8.0 -1.3 88 0.7 W 33 57 18 31 1018.9 1018.6 0.2
24/09:35pm 0.3 -8.1 -2.1 84 1.0 WSW 32 50 17 27 1018.8 1018.5 0.2
24/09:30pm 0.3 -8.1 -2.2 83 1.0 W 32 46 17 25 1018.9 1018.6 0.2
24/09:00pm 0.2 -8.7 -1.7 87 0.8 W 35 54 19 29 1018.5 1018.2 0.2
24/08:30pm 0.2 -9.4 -1.5 88 0.7 W 39 57 21 31 1018.0 1017.7 0.2
24/08:08pm 0.1 -10.2 -1.3 90 0.6 W 43 61 23 33 1017.7 1017.3 0.2
24/08:00pm 0.2 -11.1 -1.4 89 0.6 WNW 48 59 26 32 1017.7 1017.3 0.2
24/07:30pm 0.3 -10.6 -1.4 88 0.7 WNW 46 65 25 35 1017.3 1016.9 0.2
24/07:06pm 0.4 -10.1 -1.2 89 0.7 WNW 44 65 24 35 1017.1 1016.7 0.2
24/07:00pm 0.3 -10.0 -1.3 89 0.7 WNW 43 59 23 32 1017.2 1016.8 0.2
24/06:30pm 0.4 -10.2 -1.8 85 0.9 WNW 44 63 24 34 1017.0 1016.6 0.2
24/06:26pm 0.3 -10.3 -1.8 86 0.8 WNW 44 63 24 34 1016.8 1016.4 0.2
24/06:00pm 0.3 -11.3 -0.8 92 0.5 WNW 50 67 27 36 1016.5 1016.1 0.2
24/05:39pm 0.2 -10.6 -0.8 93 0.4 WNW 46 65 25 35 1016.1 1015.7 0.2
24/05:30pm 0.1 -11.5 -0.7 94 0.3 WNW 50 63 27 34 1015.9 1015.4 0.2
24/05:00pm 0.3 -10.6 -1.0 91 0.5 WNW 46 65 25 35 1015.5 1015.0 0.2
24/04:36pm 0.3 -11.3 -0.8 92 0.5 WNW 50 69 27 37 1014.8 1014.3 0.2
24/04:30pm 0.3 -12.1 -1.0 91 0.5 WNW 54 69 29 37 1014.7 1014.2 0.2
24/04:05pm 0.3 -12.0 -0.7 93 0.4 WNW 54 72 29 39 1014.3 1013.8 0.2
24/04:00pm 0.3 -11.7 -0.7 93 0.4 WNW 52 67 28 36 1014.3 1013.8 0.2
24/03:30pm 0.4 -12.5 -0.7 92 0.5 WNW 57 80 31 43 - - 0.2
24/03:00pm 0.5 -12.4 -0.5 93 0.4 NW 57 76 31 41 - - 0.2
24/02:30pm 0.5 -11.8 -0.5 93 0.4 WNW 54 80 29 43 - - 0.2
24/02:07pm 0.5 -12.4 -0.5 93 0.4 NW 57 76 31 41 - - 0.2
24/02:00pm 0.7 -12.5 -0.3 93 0.4 NW 59 76 32 41 - - 0.2
24/01:30pm 0.7 -10.1 -0.3 93 0.4 WNW 46 69 25 37 - - 0.2
24/01:00pm 0.5 -9.7 -0.6 92 0.4 WNW 43 63 23 34 - - 0.2
24/12:32pm 0.4 -9.4 -0.5 94 0.4 WNW 41 65 22 35 1014.3 1013.8 0.2
24/12:30pm 0.3 -9.2 -0.5 94 0.3 WNW 39 54 21 29 1014.3 1013.8 0.2
24/12:11pm 0.5 -9.0 -0.6 92 0.4 WNW 39 63 21 34 1014.4 1013.9 0.2
24/12:00pm 0.7 -8.0 -0.4 92 0.5 WNW 35 50 19 27 1014.7 1014.2 0.2
24/11:30am 0.9 -9.0 -0.9 88 0.7 WNW 41 59 22 32 1014.7 1014.2 0.2
24/11:00am 0.6 -10.0 -1.8 84 1.0 NW 44 65 24 35 1015.1 1014.7 0.2
24/10:30am 0.6 -8.6 -1.2 88 0.8 WNW 37 63 20 34 1015.4 1014.9 0.2
24/10:00am 0.6 -9.4 -1.3 87 0.8 WNW 41 61 22 33 1015.0 1014.5 0.2
24/09:35am 0.6 -8.5 -0.7 91 0.5 WNW 37 56 20 30 1014.9 1014.4 0.2
24/09:30am 0.5 -8.6 -0.6 92 0.4 WNW 37 54 20 29 1015.1 1014.7 0.2
24/09:00am 0.7 -8.8 -0.4 92 0.5 WNW 39 59 21 32 1014.9 1014.4 34.2
24/08:55am 0.8 -7.3 -0.2 93 0.4 W 32 57 17 31 1014.5 1014.0 34.2
24/08:31am 0.8 -7.9 -0.5 91 0.5 W 35 54 19 29 1014.7 1014.2 34.0
24/08:30am 0.8 -7.5 -0.5 91 0.5 W 33 50 18 27 1014.8 1014.3 34.0
24/08:00am 0.8 -7.9 -0.6 90 0.6 WNW 35 56 19 30 1014.7 1014.2 34.0
24/07:35am 0.7 -9.1 -0.3 93 0.4 NW 41 59 22 32 1014.7 1014.2 34.0
24/07:30am 0.8 -9.4 -0.2 93 0.4 NW 43 59 23 32 1014.3 1013.8 34.0
24/07:24am 0.8 -8.2 -0.2 93 0.4 WNW 37 57 20 31 - - 33.2
24/07:00am 0.9 -7.2 0.0 94 0.4 WNW 32 48 17 26 1014.5 1014.0 32.6
24/06:30am 0.9 -10.2 0.2 95 0.3 NW 48 70 26 38 - - 32.4
24/06:00am 1.1 -7.9 0.4 95 0.3 WNW 37 74 20 40 - - 32.2
24/05:58am 1.1 -7.5 0.4 95 0.3 WNW 35 74 19 40 - - 32.0
24/05:41am 1.1 -7.1 0.4 95 0.3 WNW 33 52 18 28 - - 30.4
24/05:30am 1.0 -7.2 0.1 94 0.4 WNW 33 48 18 26 - - 30.4
24/05:00am 0.7 -6.6 -0.2 94 0.4 NW 28 46 15 25 1014.3 1013.8 29.0
24/04:35am 0.5 -6.9 -0.5 93 0.4 NW 28 46 15 25 1014.4 1013.9 26.4
24/04:30am 0.6 -6.0 -0.4 93 0.4 NW 24 41 13 22 1014.5 1014.0 25.4
24/04:00am 0.9 -6.4 -0.1 93 0.4 WNW 28 43 15 23 1014.7 1014.2 23.2
24/03:30am 0.6 -6.8 -0.5 92 0.5 NW 28 35 15 19 1014.9 1014.4 18.8
24/03:00am 0.7 -5.1 -0.4 92 0.5 WNW 20 32 11 17 1015.5 1015.0 16.2
24/02:30am 0.9 -7.2 -0.2 92 0.5 WNW 32 46 17 25 1015.5 1015.0 13.0
24/02:00am 1.1 -7.6 -0.2 91 0.5 NW 35 52 19 28 1015.7 1015.3 10.0
24/01:50am 1.6 -6.4 0.3 91 0.5 NW 32 50 17 27 1015.6 1015.2 8.4
24/01:30am 1.6 -8.6 0.0 89 0.7 NNW 43 54 23 29 1015.1 1014.7 5.2
24/01:05am 3.6 -5.4 2.4 92 0.5 NNW 39 57 21 31 1015.0 1014.5 2.6
24/01:00am 3.6 -5.0 2.6 93 0.5 NNW 37 48 20 26 1015.6 1015.2 2.2
24/12:30am 3.7 -6.0 2.8 94 0.4 NNW 43 54 23 29 1015.9 1015.4 0.0
24/12:00am 3.8 -6.8 2.9 94 0.4 NNW 48 59 26 32 1016.0 1015.6 0.0
 
Date/Time
EST
Temp
°C
App
Temp
°C
Dew
Point
°C
Rel
Hum
%
Delta-T
°C
Wind Press
QNH
hPa
Press
MSL
hPa
Rain since
9am
mm
Dir  Spd
km/h
Gust
km/h
Spd
kts
Gust
kts
23/11:30pm 3.5 -7.9 2.8 95 0.3 NW 52 63 28 34 1016.4 1015.9 0.0
23/11:00pm 3.1 -6.7 2.1 93 0.4 NW 43 63 23 34 1017.2 1016.8 0.0
23/10:30pm 3.9 -5.4 3.0 94 0.4 NW 41 59 22 32 1017.6 1017.2 0.0
23/10:24pm 3.8 -4.7 2.9 94 0.4 NW 37 56 20 30 1017.6 1017.2 0.0
23/10:00pm 3.4 -4.9 2.4 93 0.5 NNW 35 50 19 27 1018.0 1017.7 0.0
23/09:30pm 3.5 -4.3 2.0 90 0.7 NW 32 50 17 27 1018.5 1018.2 0.0
23/09:00pm 3.7 -4.1 1.7 87 0.9 NW 32 46 17 25 1018.7 1018.3 0.0
23/08:30pm 3.5 -3.2 1.7 88 0.8 NW 26 41 14 22 1019.0 1018.7 0.0
23/08:00pm 3.2 -4.0 0.8 84 1.0 NW 28 37 15 20 1018.9 1018.6 0.0
23/07:30pm 3.0 -5.8 -1.2 74 1.7 NW 35 44 19 24 1018.4 1018.1 0.0
23/07:00pm 3.2 -5.7 -2.1 68 2.1 NW 35 44 19 24 1018.7 1018.3 0.0
23/06:30pm 3.4 -5.9 -2.3 66 2.3 NNW 37 48 20 26 1018.9 1018.6 0.0
23/06:00pm 3.6 -5.6 -4.1 57 3.0 NNW 35 44 19 24 1018.7 1018.3 0.0
23/05:30pm 3.8 -4.0 -3.5 59 2.9 NNW 28 35 15 19 1018.9 1018.6 0.0
23/05:00pm 3.7 -4.2 -1.3 70 2.1 NNW 30 37 16 20 1018.9 1018.6 0.0
23/04:30pm 3.8 -3.2 -0.6 73 1.9 N 26 32 14 17 1019.0 1018.7 0.0
23/04:00pm 4.6 -3.1 0.0 72 2.0 NNW 30 41 16 22 1019.4 1019.1 0.0
23/03:30pm 6.2 -2.8 -2.7 53 3.7 NNW 35 46 19 25 1019.1 1018.8 0.0
23/03:00pm 7.0 -1.7 -3.5 47 4.3 NNW 33 41 18 22 1019.4 1019.1 0.0
23/02:30pm 7.2 -1.7 -1.7 53 3.8 NNW 35 44 19 24 1019.5 1019.2 0.0
23/02:00pm 6.9 -3.5 -1.7 54 3.6 NNW 43 50 23 27 1019.6 1019.4 0.0
23/01:30pm 7.1 -3.4 -1.3 55 3.6 NNW 44 56 24 30 1019.7 1019.5 0.0
23/01:00pm 8.3 -1.0 -2.3 47 4.5 NNW 37 46 20 25 1020.1 1019.9 0.0
23/12:30pm 9.4 0.6 -6.0 33 6.1 NNW 32 43 17 23 1020.6 1020.4 0.0
23/12:00pm 9.9 1.6 -5.2 34 6.1 NNW 30 46 16 25 1021.3 1021.1 0.0
23/11:52am 9.9 2.0 -5.2 34 6.1 NNW 28 46 15 25 1021.2 1021.0 0.0
23/11:30am 10.6 3.9 -4.6 34 6.3 NNW 22 30 12 16 1021.8 1021.6 0.0
23/11:00am 9.7 3.3 -4.6 36 5.8 NNW 20 26 11 14 1022.4 1022.3 0.0
23/10:30am 9.8 3.9 -2.2 43 5.2 NNW 19 26 10 14 1022.8 1022.6 0.0
23/10:00am 7.9 0.3 -2.1 49 4.2 NW 28 37 15 20 1023.4 1023.3 0.0
23/09:30am 5.4 -2.9 -2.0 59 3.1 NW 32 41 17 22 1023.1 1023.0 0.0
23/09:00am 5.9 -2.0 -1.7 58 3.2 NNW 30 39 16 21 1023.3 1023.2 0.0
23/08:47am 5.1 -2.6 -0.1 69 2.3 NW 30 37 16 20 1023.5 1023.4 0.0
23/08:30am 3.5 -5.7 1.2 85 1.0 NW 39 48 21 26 1023.4 1023.3 0.0
23/08:00am 3.4 -6.3 0.8 83 1.1 NW 41 50 22 27 1023.3 1023.2 0.0
23/07:30am 4.9 -3.7 -4.4 51 3.6 NW 32 39 17 21 1023.1 1023.0 0.0
23/07:00am 5.3 -2.8 -3.5 53 3.5 NW 30 35 16 19 1023.1 1023.0 0.0
23/06:30am 4.5 -3.3 -3.7 55 3.2 WNW 28 32 15 17 1023.3 1023.2 0.0
23/06:00am 5.0 -2.4 -3.3 55 3.3 WNW 26 32 14 17 1023.0 1022.9 0.0
23/05:30am 5.3 -2.5 -3.5 53 3.5 WNW 28 32 15 17 1023.0 1022.9 0.0
23/05:00am 4.4 -3.4 -3.6 56 3.1 WNW 28 32 15 17 1023.0 1022.9 0.0
23/04:30am 4.1 -3.7 -3.6 57 3.0 WNW 28 33 15 18 1022.9 1022.8 0.0
23/04:00am 4.1 -3.8 -4.9 52 3.4 WNW 28 32 15 17 1022.8 1022.6 0.0
23/03:30am 4.5 -3.5 -5.3 49 3.7 WNW 28 32 15 17 1023.0 1022.9 0.0
23/03:00am 4.5 -3.8 -4.7 51 3.5 WNW 30 35 16 19 1023.3 1023.2 0.0
23/02:30am 4.7 -3.3 -6.2 45 4.0 NW 28 32 15 17 1023.4 1023.3 0.0
23/02:00am 4.1 -4.1 -7.6 42 4.4 WNW 28 30 15 16 1023.7 1023.7 0.0
23/01:30am 4.9 -3.3 -8.2 38 4.6 WNW 28 32 15 17 1024.0 1023.9 0.0
23/01:00am 4.1 -3.8 -4.4 54 3.3 WNW 28 32 15 17 1024.3 1024.3 0.0
23/12:30am 4.1 -3.4 -4.6 53 3.3 WNW 26 30 14 16 1024.6 1024.5 0.0
23/12:00am 5.6 -2.5 -7.2 39 4.7 WNW 28 32 15 17 1024.7 1024.7 0.0
 
Date/Time
EST
Temp
°C
App
Temp
°C
Dew
Point
°C
Rel
Hum
%
Delta-T
°C
Wind Press
QNH
hPa
Press
MSL
hPa
Rain since
9am
mm
Dir  Spd
km/h
Gust
km/h
Spd
kts
Gust
kts
22/11:30pm 5.0 -2.9 -5.1 48 3.9 WNW 28 33 15 18 1025.0 1024.9 0.0
22/11:00pm 5.3 -2.4 -6.9 41 4.5 WNW 26 32 14 17 1025.0 1024.9 0.0
22/10:30pm 5.0 -2.6 -5.6 46 4.0 WNW 26 35 14 19 1025.2 1025.2 0.0
22/10:00pm 5.1 -2.8 -4.4 50 3.7 WNW 28 35 15 19 1025.1 1025.1 0.0
22/09:30pm 5.0 -2.9 -4.5 50 3.7 NW 28 35 15 19 1025.1 1025.1 0.0
22/09:00pm 5.0 -2.9 -4.3 51 3.6 NW 28 35 15 19 1024.8 1024.8 0.0
22/08:30pm 5.2 -2.8 -5.5 46 4.1 NW 28 37 15 20 1024.7 1024.7 0.0
22/08:00pm 5.0 -2.3 -6.2 44 4.2 WNW 24 30 13 16 1024.7 1024.7 0.0
22/07:30pm 5.1 -2.2 -6.4 43 4.3 WNW 24 28 13 15 1024.6 1024.5 0.0
22/07:00pm 3.9 -3.2 -4.8 53 3.3 WNW 24 28 13 15 1024.7 1024.7 0.0
22/06:30pm 4.0 -2.8 -4.9 52 3.4 WNW 22 24 12 13 1024.6 1024.5 0.0
22/06:00pm 3.8 -2.7 -5.9 49 3.6 WNW 20 24 11 13 1024.3 1024.3 0.0
22/05:30pm 1.6 -2.7 -5.3 60 2.6 NW 9 15 5 8 1024.2 1024.2 0.0
22/05:00pm 2.6 -1.6 -3.9 62 2.5 WNW 9 13 5 7 1024.1 1024.0 0.0
22/04:30pm 4.1 0.9 -3.6 57 3.0 N 4 6 2 3 1024.2 1024.2 0.0
22/04:00pm 8.0 5.6 -2.9 46 4.5 CALM 0 4 0 2 1024.2 1024.2 0.0
22/03:30pm 8.3 5.7 -1.5 50 4.2 SE 2 4 1 2 1024.2 1024.2 0.0
22/03:00pm 8.3 5.3 -2.0 48 4.4 E 4 6 2 3 1024.3 1024.3 0.0
22/02:30pm 9.1 5.6 -2.5 44 4.9 SSW 6 9 3 5 1024.5 1024.4 0.0
22/02:00pm 9.2 5.1 -3.3 41 5.2 WSW 9 13 5 7 1024.5 1024.4 0.0
22/01:30pm 9.1 5.3 -3.8 40 5.3 W 7 11 4 6 1024.6 1024.5 0.0
22/01:00pm 9.1 4.6 -3.1 42 5.1 SW 11 17 6 9 1024.8 1024.8 0.0
22/12:30pm 9.0 5.1 -1.4 48 4.5 SSW 9 17 5 9 1025.0 1024.9 0.0
22/12:00pm 8.4 4.9 -1.7 49 4.3 SSE 7 11 4 6 1025.3 1025.3 0.0
22/11:30am 8.4 5.0 -2.0 48 4.4 SSE 6 9 3 5 1025.7 1025.7 0.0

Other Formats:

Comma delimited format used in spreadsheet applications
http://www.bom.gov.au/fwo/IDN60801/IDN60801.95909.axf

JavaScript Object Notation format (JSON) in row-major order
http://www.bom.gov.au/fwo/IDN60801/IDN60801.95909.json